Time;durP1;ratioP1;P1;durP2;ratioP2;P2;SDS_P1;SDS_P2;PMS_P1;PMS_P2;Temp;Humidity;BMP_temperature;BMP_pressure;BME280_temperature;BME280_humidity;BME280_pressure;Samples;Min_cycle;Max_cycle;Signal;HPM_P1;HPM_P2
2023/09/05 00:00:10;;;;;;;7.13;3.45;;;;;;;18.97;63.00;100742.97;4959584;28;20070;-96
2023/09/05 00:26:05;;;;;;;7.45;3.95;;;;;;;18.66;64.67;100734.34;5061339;23;20039;-95
2023/09/05 00:28:30;;;;;;;6.38;3.90;;;;;;;18.70;64.59;100730.47;4968608;28;20023;-95
2023/09/05 00:30:57;;;;;;;8.63;4.95;;;;;;;18.72;64.18;100731.16;4969227;28;20039;-96
2023/09/05 00:33:22;;;;;;;10.63;4.40;;;;;;;18.66;64.61;100731.72;4953177;29;20478;-95
2023/09/05 00:35:52;;;;;;;4.97;3.90;;;;;;;18.59;64.87;100730.59;4953198;29;20035;-95
2023/09/05 00:38:19;;;;;;;6.78;4.38;;;;;;;18.62;64.38;100730.31;4953674;28;20074;-96
2023/09/05 00:40:44;;;;;;;7.25;4.10;;;;;;;18.60;64.80;100719.16;4941693;29;20114;-95
2023/09/05 00:43:09;;;;;;;6.70;4.20;;;;;;;18.54;65.11;100724.94;4933983;29;20034;-95
2023/09/05 00:45:49;;;;;;;5.30;4.10;;;;;;;18.47;65.70;100715.97;4933950;29;20111;-96
2023/09/05 00:48:16;;;;;;;6.53;4.40;;;;;;;18.47;65.81;100718.59;4934068;29;20152;-94
2023/09/05 00:50:41;;;;;;;6.20;4.82;;;;;;;18.46;66.04;100714.31;4934912;29;20487;-95
2023/09/05 00:53:08;;;;;;;6.65;4.38;;;;;;;18.38;66.39;100710.56;4933944;29;20024;-95
2023/09/05 00:55:33;;;;;;;8.13;4.97;;;;;;;18.34;66.92;100706.59;4935237;29;20032;-95
2023/09/05 00:58:00;;;;;;;6.85;4.35;;;;;;;18.37;66.90;100708.91;4933858;29;20031;-95
2023/09/05 01:00:26;;;;;;;6.90;4.40;;;;;;;18.28;67.40;100714.94;4934023;29;20071;-95
2023/09/05 01:02:53;;;;;;;8.07;4.60;;;;;;;18.23;67.36;100706.66;4933935;29;20028;-95
2023/09/05 01:05:22;;;;;;;7.18;5.35;;;;;;;18.24;67.57;100713.56;4936129;29;20094;-95
2023/09/05 01:08:12;;;;;;;10.18;5.38;;;;;;;18.14;68.26;100707.44;4933472;29;20020;-94
2023/09/05 01:10:47;;;;;;;9.43;4.97;;;;;;;18.10;68.91;100701.66;4935131;29;20039;-96
2023/09/05 01:13:22;;;;;;;9.82;4.57;;;;;;;18.06;68.87;100705.47;4935733;29;20060;-95
2023/09/05 01:15:47;;;;;;;9.93;6.50;;;;;;;18.02;69.30;100701.50;4952199;28;20063;-95
2023/09/05 01:18:13;;;;;;;8.27;5.65;;;;;;;17.99;69.71;100708.75;4938321;29;20051;-96
2023/09/05 01:20:50;;;;;;;13.20;6.20;;;;;;;17.92;70.02;100701.44;4947702;29;20455;-96
2023/09/05 01:23:27;;;;;;;8.80;6.03;;;;;;;17.93;70.34;100707.50;4938241;29;20027;-95
2023/09/05 01:25:53;;;;;;;9.20;6.10;;;;;;;17.83;71.31;100699.59;4938121;29;20035;-94
2023/09/05 01:28:23;;;;;;;9.20;6.00;;;;;;;17.81;71.82;100701.50;4954259;29;20026;-94
2023/09/05 01:30:48;;;;;;;9.65;6.55;;;;;;;17.80;72.15;100702.47;4944050;29;20019;-95
2023/09/05 01:33:15;;;;;;;10.35;6.88;;;;;;;17.73;72.60;100688.25;4957266;29;20023;-95
2023/09/05 01:35:41;;;;;;;9.98;6.45;;;;;;;17.71;73.04;100690.16;4951031;29;20031;-95
2023/09/05 01:38:07;;;;;;;17.65;7.45;;;;;;;17.66;74.19;100687.09;4952197;29;20027;-95
2023/09/05 01:40:32;;;;;;;16.63;7.95;;;;;;;17.65;74.84;100685.44;4939133;29;20063;-94
2023/09/05 01:42:57;;;;;;;11.02;6.88;;;;;;;17.64;75.05;100678.56;4937976;29;20449;-95
2023/09/05 01:45:23;;;;;;;12.07;8.05;;;;;;;17.57;75.51;100680.03;4942170;29;20039;-94
2023/09/05 01:47:48;;;;;;;15.73;9.68;;;;;;;17.53;76.31;100672.47;4957011;29;20719;-95
2023/09/05 01:50:13;;;;;;;14.77;8.23;;;;;;;17.53;76.71;100669.00;4957088;28;20023;-94
2023/09/05 01:52:39;;;;;;;13.32;7.65;;;;;;;17.49;77.32;100665.84;4942211;28;20442;-94
2023/09/05 01:55:05;;;;;;;13.07;9.00;;;;;;;17.49;77.73;100659.78;4952842;29;20040;-95
2023/09/05 01:57:30;;;;;;;11.82;8.60;;;;;;;17.52;78.09;100659.53;4937810;29;20059;-95
2023/09/05 01:59:56;;;;;;;14.00;9.55;;;;;;;17.45;78.53;100653.16;4938058;29;20020;-94
2023/09/05 02:02:21;;;;;;;12.88;9.05;;;;;;;17.41;78.82;100647.38;4936567;29;20019;-95
2023/09/05 02:04:47;;;;;;;15.13;9.50;;;;;;;17.33;79.68;100644.56;4937048;29;20031;-94
2023/09/05 02:07:12;;;;;;;14.88;9.60;;;;;;;17.40;79.06;100635.28;4954964;28;20497;-96
2023/09/05 02:09:37;;;;;;;13.30;9.18;;;;;;;17.27;80.02;100638.06;4953984;28;20027;-95
2023/09/05 02:12:03;;;;;;;16.08;9.43;;;;;;;17.33;79.83;100629.72;4936251;29;20083;-94
2023/09/05 02:14:28;;;;;;;14.60;9.40;;;;;;;17.26;80.06;100638.19;4936564;29;20031;-95
2023/09/05 02:16:54;;;;;;;19.15;10.75;;;;;;;17.18;80.33;100635.41;4936697;29;20381;-95
2023/09/05 02:19:20;;;;;;;16.00;9.38;;;;;;;17.17;80.90;100638.94;4938169;29;20028;-95
2023/09/05 02:21:45;;;;;;;13.07;8.93;;;;;;;17.19;81.15;100637.03;4955360;29;20027;-95
2023/09/05 02:24:10;;;;;;;11.85;8.65;;;;;;;17.07;81.42;100638.91;4955546;29;20027;-94
2023/09/05 02:26:37;;;;;;;12.73;8.07;;;;;;;16.96;81.79;100642.38;4954015;28;20020;-95
2023/09/05 02:29:02;;;;;;;10.55;8.38;;;;;;;16.90;82.29;100633.25;4955553;29;20031;-95
2023/09/05 02:31:28;;;;;;;17.25;8.63;;;;;;;16.82;83.21;100634.81;4955549;28;20027;-95
2023/09/05 02:33:53;;;;;;;10.98;8.20;;;;;;;16.85;84.11;100634.56;4956819;28;20019;-96
2023/09/05 02:36:20;;;;;;;11.18;8.90;;;;;;;16.81;84.32;100634.00;4953102;29;20105;-94
2023/09/05 02:38:46;;;;;;;14.68;9.68;;;;;;;16.75;85.16;100638.84;4956444;28;20024;-94
2023/09/05 02:41:15;;;;;;;11.30;9.40;;;;;;;16.75;85.83;100641.44;4946432;29;20031;-96
2023/09/05 02:43:40;;;;;;;13.25;9.73;;;;;;;16.73;86.16;100635.53;4946111;29;20131;-95
2023/09/05 02:46:07;;;;;;;16.58;10.40;;;;;;;16.73;86.37;100635.53;4956577;28;20110;-95
2023/09/05 02:48:37;;;;;;;15.63;10.35;;;;;;;16.66;87.52;100636.03;4956561;29;20050;-95
2023/09/05 02:51:04;;;;;;;19.30;10.52;;;;;;;16.54;89.56;100631.78;4951282;29;20035;-94
2023/09/05 02:53:30;;;;;;;18.58;10.48;;;;;;;16.51;90.69;100633.81;4944847;29;20024;-96
2023/09/05 02:55:55;;;;;;;15.93;10.15;;;;;;;16.51;91.13;100629.44;4949951;29;20516;-94
2023/09/05 02:58:21;;;;;;;17.63;10.75;;;;;;;16.59;91.12;100627.03;4951883;29;20075;-95
2023/09/05 03:00:49;;;;;;;16.35;11.50;;;;;;;16.52;92.79;100633.69;4952291;29;20532;-95
2023/09/05 03:03:16;;;;;;;16.92;11.73;;;;;;;16.51;94.88;100632.03;4945171;29;20042;-95
2023/09/05 03:05:42;;;;;;;18.25;11.55;;;;;;;16.56;94.43;100629.91;4936008;29;20528;-96
2023/09/05 03:08:08;;;;;;;18.77;12.13;;;;;;;16.46;96.08;100639.41;4936451;29;20032;-96
2023/09/05 03:10:33;;;;;;;16.05;10.65;;;;;;;16.49;95.77;100639.16;4936472;29;20482;-96
2023/09/05 03:12:59;;;;;;;16.65;12.13;;;;;;;16.45;96.17;100648.16;4935990;29;20092;-96
2023/09/05 03:15:25;;;;;;;14.75;10.90;;;;;;;16.40;97.36;100645.09;4936955;29;20028;-96
2023/09/05 03:17:51;;;;;;;15.88;12.10;;;;;;;16.48;96.39;100646.16;4935632;29;20110;-95
2023/09/05 03:20:18;;;;;;;17.40;11.50;;;;;;;16.40;97.64;100647.69;4935188;29;20478;-95
2023/09/05 03:22:44;;;;;;;23.83;13.18;;;;;;;16.43;98.28;100635.22;4936125;29;20402;-95
2023/09/05 03:25:09;;;;;;;20.48;12.80;;;;;;;16.46;98.46;100636.81;4943376;28;20039;-96
2023/09/05 03:27:35;;;;;;;15.10;11.98;;;;;;;16.37;99.19;100634.91;4950106;29;20519;-95
2023/09/05 03:30:00;;;;;;;15.60;11.85;;;;;;;16.32;99.44;100639.66;4954399;29;20036;-95
2023/09/05 03:32:26;;;;;;;18.52;12.80;;;;;;;16.31;100.00;100640.59;4954545;28;20460;-96
2023/09/05 03:34:52;;;;;;;17.98;11.98;;;;;;;16.38;100.00;100633.94;4954512;29;20114;-96
2023/09/05 03:37:17;;;;;;;17.60;12.23;;;;;;;16.30;100.00;100633.75;4952873;28;20425;-96
2023/09/05 03:39:43;;;;;;;18.52;12.15;;;;;;;16.18;100.00;100636.34;4954034;28;20548;-96
2023/09/05 03:42:10;;;;;;;19.48;14.05;;;;;;;16.19;100.00;100639.75;4940379;29;20039;-96
2023/09/05 03:44:35;;;;;;;18.58;12.63;;;;;;;16.11;100.00;100635.16;4935111;29;20034;-96
2023/09/05 03:47:01;;;;;;;19.30;11.82;;;;;;;16.16;100.00;100638.22;4935449;29;20390;-95
2023/09/05 03:49:26;;;;;;;17.55;12.45;;;;;;;16.12;100.00;100630.78;4934601;29;20023;-96
2023/09/05 03:51:52;;;;;;;18.00;11.73;;;;;;;16.08;100.00;100626.78;4934948;29;20034;-96
2023/09/05 03:54:18;;;;;;;17.80;13.13;;;;;;;16.05;100.00;100626.06;4935082;29;20019;-96
2023/09/05 03:56:43;;;;;;;17.80;12.63;;;;;;;15.98;100.00;100618.84;4935150;29;20233;-96
2023/09/05 03:59:09;;;;;;;23.67;13.13;;;;;;;15.88;100.00;100608.31;4935362;29;20074;-95
2023/09/05 04:01:34;;;;;;;17.33;12.75;;;;;;;15.92;100.00;100611.50;4947485;29;20058;-95
2023/09/05 04:03:59;;;;;;;16.98;11.95;;;;;;;15.87;100.00;100609.25;4954032;29;20438;-95
2023/09/05 04:06:25;;;;;;;24.30;14.30;;;;;;;15.78;100.00;100607.38;4944227;29;20089;-95
2023/09/05 04:08:50;;;;;;;18.00;13.25;;;;;;;15.83;100.00;100600.84;4954045;29;20031;-96
2023/09/05 04:11:15;;;;;;;17.92;14.48;;;;;;;15.78;100.00;100595.19;4953924;28;20046;-96
2023/09/05 04:13:41;;;;;;;21.13;15.25;;;;;;;15.73;100.00;100605.13;4953767;29;20027;-95
2023/09/05 04:16:06;;;;;;;20.52;14.85;;;;;;;15.66;100.00;100610.88;4953759;29;20023;-95
2023/09/05 04:18:34;;;;;;;19.55;14.70;;;;;;;15.72;100.00;100624.25;4953643;29;20023;-96
2023/09/05 04:20:59;;;;;;;25.58;15.40;;;;;;;15.78;100.00;100634.22;4945088;29;20024;-96
2023/09/05 04:23:25;;;;;;;18.67;14.05;;;;;;;15.77;100.00;100632.53;4934936;29;20026;-96
2023/09/05 04:26:01;;;;;;;20.48;15.30;;;;;;;15.72;100.00;100626.84;4935180;29;20386;-96
2023/09/05 04:28:27;;;;;;;21.20;15.02;;;;;;;15.73;100.00;100630.31;4936615;29;20028;-95
2023/09/05 04:30:55;;;;;;;20.38;15.45;;;;;;;15.80;100.00;100626.28;4937863;29;20026;-96
2023/09/05 04:33:24;;;;;;;20.13;14.88;;;;;;;15.84;100.00;100627.69;4935363;29;20028;-96
2023/09/05 04:35:50;;;;;;;23.80;15.82;;;;;;;15.86;100.00;100618.00;4935243;29;20533;-96
2023/09/05 04:38:15;;;;;;;22.27;14.93;;;;;;;15.84;100.00;100612.91;4935336;29;20060;-96
2023/09/05 04:40:41;;;;;;;21.58;15.73;;;;;;;15.73;100.00;100620.72;4936452;29;20031;-96
2023/09/05 04:43:06;;;;;;;26.20;16.38;;;;;;;15.71;100.00;100614.81;4953074;29;20035;-96
2023/09/05 04:45:32;;;;;;;22.48;15.48;;;;;;;15.78;100.00;100605.59;4954354;28;20027;-95
2023/09/05 04:47:57;;;;;;;22.20;16.42;;;;;;;15.74;100.00;100598.94;4954526;29;20477;-96
2023/09/05 04:50:23;;;;;;;24.52;16.27;;;;;;;15.70;100.00;100605.31;4942822;29;20023;-95
2023/09/05 04:52:48;;;;;;;24.52;16.33;;;;;;;15.68;100.00;100598.56;4941516;29;20027;-96
2023/09/05 04:55:14;;;;;;;21.95;15.63;;;;;;;15.66;100.00;100603.88;4957524;28;20031;-96
2023/09/05 04:57:42;;;;;;;21.77;15.32;;;;;;;15.63;100.00;100604.13;4942685;29;20047;-96
2023/09/05 05:00:08;;;;;;;23.55;15.70;;;;;;;15.62;100.00;100613.69;4942809;29;20039;-95
2023/09/05 05:02:34;;;;;;;20.65;15.75;;;;;;;15.62;100.00;100608.47;4970411;28;20023;-96
2023/09/05 05:05:00;;;;;;;21.40;15.23;;;;;;;15.61;100.00;100600.81;4942022;29;20028;-95
2023/09/05 05:07:25;;;;;;;23.00;17.00;;;;;;;15.61;100.00;100595.59;4949250;29;20034;-95
2023/09/05 05:09:51;;;;;;;27.60;17.98;;;;;;;15.63;100.00;100588.53;4946865;29;20103;-96
2023/09/05 05:12:17;;;;;;;23.00;16.80;;;;;;;15.67;100.00;100594.31;4946878;29;20398;-96
2023/09/05 05:14:42;;;;;;;23.63;16.67;;;;;;;15.67;100.00;100595.13;4943636;29;20032;-96
2023/09/05 05:17:08;;;;;;;25.35;17.90;;;;;;;15.61;100.00;100600.81;4957520;29;20036;-96
2023/09/05 05:19:33;;;;;;;26.00;18.13;;;;;;;15.63;100.00;100601.53;4956488;29;20029;-94
2023/09/05 05:21:59;;;;;;;29.00;18.20;;;;;;;15.68;100.00;100612.41;4961072;28;20037;-94
2023/09/05 05:24:25;;;;;;;26.27;18.33;;;;;;;15.59;100.00;100602.69;4960425;29;20031;-95
2023/09/05 05:26:50;;;;;;;24.00;17.25;;;;;;;15.60;100.00;100622.56;4952595;28;20059;-94
2023/09/05 05:29:16;;;;;;;22.63;15.93;;;;;;;15.49;100.00;100622.56;4942126;29;20059;-94
2023/09/05 05:31:42;;;;;;;18.23;14.23;;;;;;;15.44;100.00;100646.31;4941067;29;20033;-93
2023/09/05 05:34:07;;;;;;;18.92;13.93;;;;;;;15.39;100.00;100648.41;4940273;29;20027;-93
2023/09/05 05:36:32;;;;;;;21.05;14.55;;;;;;;15.37;100.00;100645.09;4940920;29;20031;-96
2023/09/05 05:38:59;;;;;;;18.23;14.23;;;;;;;15.35;100.00;100645.19;4940757;29;20023;-92
2023/09/05 05:41:26;;;;;;;24.25;17.83;;;;;;;15.51;100.00;100641.44;4946927;28;20126;-91
2023/09/05 05:43:51;;;;;;;26.33;17.77;;;;;;;15.49;100.00;100640.75;4960018;28;20486;-92
2023/09/05 05:46:19;;;;;;;23.40;17.50;;;;;;;15.50;100.00;100639.81;4958926;29;20027;-95
2023/09/05 05:48:46;;;;;;;24.40;17.98;;;;;;;15.62;100.00;100641.47;4955867;28;20031;-94
2023/09/05 05:51:12;;;;;;;21.17;16.83;;;;;;;15.63;100.00;100640.56;4947997;29;20474;-96
2023/09/05 05:53:38;;;;;;;32.38;18.40;;;;;;;15.63;100.00;100640.56;4962112;29;20012;-95
2023/09/05 05:56:21;;;;;;;26.05;17.95;;;;;;;15.62;100.00;100631.06;4966824;28;20052;-96
2023/09/05 05:58:48;;;;;;;26.08;18.83;;;;;;;15.68;100.00;100632.38;4961154;28;20073;-94
2023/09/05 06:01:13;;;;;;;26.30;19.17;;;;;;;15.69;100.00;100629.66;4959133;28;20057;-94
2023/09/05 06:03:39;;;;;;;26.42;17.40;;;;;;;15.72;100.00;100639.88;4957134;29;20031;-95
2023/09/05 06:06:04;;;;;;;28.30;19.38;;;;;;;15.75;100.00;100639.66;4956154;29;20039;-95
2023/09/05 06:08:30;;;;;;;28.38;19.15;;;;;;;15.78;100.00;100649.81;4957326;28;20027;-93
2023/09/05 06:10:56;;;;;;;24.52;17.52;;;;;;;15.78;100.00;100660.25;4956931;29;20036;-94
2023/09/05 06:13:22;;;;;;;28.48;18.52;;;;;;;15.86;100.00;100661.44;4943276;29;20027;-95
2023/09/05 06:15:47;;;;;;;25.65;18.67;;;;;;;15.87;100.00;100657.88;4936612;29;20040;-95
2023/09/05 06:18:13;;;;;;;27.13;19.15;;;;;;;15.87;100.00;100657.88;4936600;29;20032;-94
2023/09/05 06:20:39;;;;;;;23.55;17.70;;;;;;;15.97;100.00;100648.41;4937654;29;20087;-95
2023/09/05 06:23:05;;;;;;;24.73;17.88;;;;;;;15.95;100.00;100658.13;4936394;29;20446;-95
2023/09/05 06:25:31;;;;;;;31.35;20.40;;;;;;;15.97;100.00;100644.06;4936710;29;20118;-96
2023/09/05 06:27:56;;;;;;;26.48;19.88;;;;;;;15.91;100.00;100635.88;4936683;29;20545;-94
2023/09/05 06:30:22;;;;;;;31.63;20.23;;;;;;;15.93;100.00;100628.78;4936349;29;20027;-96
2023/09/05 06:32:48;;;;;;;26.48;19.13;;;;;;;15.95;100.00;100634.72;4936253;29;20479;-95
2023/09/05 06:35:14;;;;;;;25.20;18.85;;;;;;;16.03;100.00;100629.72;4936341;29;20035;-95
2023/09/05 06:37:39;;;;;;;25.65;17.85;;;;;;;16.05;100.00;100636.47;4936342;29;20140;-96
2023/09/05 06:40:09;;;;;;;28.80;18.98;;;;;;;16.20;100.00;100634.44;4936412;29;20024;-95
2023/09/05 06:42:39;;;;;;;28.85;19.42;;;;;;;16.27;100.00;100646.03;4936185;29;20032;-94
2023/09/05 06:45:05;;;;;;;30.45;19.20;;;;;;;16.41;100.00;100639.75;4947918;29;20034;-95
2023/09/05 06:47:30;;;;;;;23.60;18.48;;;;;;;16.52;100.00;100643.28;4955359;29;20023;-94
2023/09/05 06:49:56;;;;;;;28.02;18.90;;;;;;;16.60;100.00;100640.91;4955219;28;20027;-95
2023/09/05 06:52:21;;;;;;;26.88;18.90;;;;;;;16.72;100.00;100629.50;4955043;29;20030;-95
2023/09/05 06:54:46;;;;;;;30.88;18.35;;;;;;;16.78;100.00;100622.97;4946933;29;20460;-95
2023/09/05 06:57:12;;;;;;;29.58;19.42;;;;;;;16.79;100.00;100624.66;4937529;29;20031;-96
2023/09/05 06:59:38;;;;;;;29.35;18.23;;;;;;;16.90;100.00;100617.63;4936826;29;20039;-96
2023/09/05 07:02:03;;;;;;;29.13;18.48;;;;;;;17.01;100.00;100618.53;4936584;29;20019;-95
2023/09/05 07:04:31;;;;;;;27.88;17.77;;;;;;;17.04;100.00;100626.91;4936460;29;20020;-95
2023/09/05 07:06:58;;;;;;;27.35;18.77;;;;;;;17.12;100.00;100628.91;4936411;29;20024;-95
2023/09/05 07:09:24;;;;;;;28.42;18.77;;;;;;;17.20;100.00;100623.88;4936204;29;20474;-95
2023/09/05 07:11:49;;;;;;;24.60;18.58;;;;;;;17.35;100.00;100632.22;4936251;29;20059;-94
2023/09/05 07:14:14;;;;;;;26.50;19.25;;;;;;;17.39;100.00;100625.81;4936389;29;20030;-94
2023/09/05 07:16:40;;;;;;;27.52;18.33;;;;;;;17.55;100.00;100626.16;4935797;29;20055;-95
2023/09/05 07:19:05;;;;;;;27.10;17.15;;;;;;;17.66;100.00;100619.22;4936101;29;20485;-94
2023/09/05 07:21:30;;;;;;;29.17;18.27;;;;;;;17.68;100.00;100606.84;4935949;29;20030;-96
2023/09/05 07:23:56;;;;;;;26.08;18.48;;;;;;;17.66;100.00;100603.56;4942405;29;20039;-95
2023/09/05 07:26:21;;;;;;;28.48;19.00;;;;;;;17.67;100.00;100600.00;4944202;29;20466;-95
2023/09/05 07:28:46;;;;;;;24.08;17.52;;;;;;;17.80;100.00;100594.53;4936220;29;20118;-96
2023/09/05 07:31:14;;;;;;;23.17;18.08;;;;;;;17.89;100.00;100599.03;4935892;29;20493;-96
2023/09/05 07:33:40;;;;;;;26.83;18.85;;;;;;;18.03;100.00;100605.69;4936468;29;20024;-95
2023/09/05 07:36:06;;;;;;;26.38;17.50;;;;;;;18.18;100.00;100599.13;4935823;29;20119;-95
2023/09/05 07:38:31;;;;;;;27.95;18.00;;;;;;;18.29;100.00;100591.19;4935845;29;20447;-95
2023/09/05 07:41:01;;;;;;;27.13;18.60;;;;;;;18.70;98.97;100599.75;4935474;29;20046;-95
2023/09/05 07:43:27;;;;;;;25.13;18.30;;;;;;;21.01;79.76;100617.53;4935708;29;20386;-94
2023/09/05 07:45:52;;;;;;;26.30;16.88;;;;;;;20.53;78.46;100617.75;4937784;29;20039;-95
2023/09/05 07:48:17;;;;;;;24.00;16.67;;;;;;;20.58;78.51;100626.97;4935661;29;20548;-94
2023/09/05 07:50:43;;;;;;;21.75;16.00;;;;;;;21.06;74.72;100628.41;4936836;29;20062;-95
2023/09/05 07:53:08;;;;;;;25.83;17.95;;;;;;;20.64;76.04;100623.78;4935196;29;20028;-94
2023/09/05 07:55:34;;;;;;;23.65;17.67;;;;;;;20.68;76.60;100612.84;4935569;29;20087;-94
2023/09/05 07:57:59;;;;;;;22.20;16.02;;;;;;;21.10;74.07;100603.50;4934667;29;20393;-95
2023/09/05 08:00:27;;;;;;;21.25;16.45;;;;;;;21.35;72.89;100612.38;4936652;29;20102;-95
2023/09/05 08:02:52;;;;;;;23.35;15.48;;;;;;;21.38;72.37;100607.66;4935184;29;20070;-95
2023/09/05 08:05:19;;;;;;;21.80;14.77;;;;;;;22.80;66.38;100604.44;4934755;29;20059;-95
2023/09/05 08:07:45;;;;;;;24.95;16.30;;;;;;;22.80;65.04;100604.44;4934697;29;20039;-95
2023/09/05 08:10:11;;;;;;;25.23;15.25;;;;;;;23.83;61.13;100600.38;4942718;29;20027;-96
2023/09/05 08:12:36;;;;;;;20.17;15.18;;;;;;;23.80;59.64;100601.53;4934296;29;20482;-95
2023/09/05 08:15:02;;;;;;;21.60;14.70;;;;;;;23.99;59.54;100596.84;4934393;29;20049;-95
2023/09/05 08:17:30;;;;;;;20.35;14.23;;;;;;;25.06;55.98;100596.97;4934296;29;20043;-95
2023/09/05 08:19:56;;;;;;;20.50;14.80;;;;;;;24.98;56.40;100595.22;4934308;29;20074;-95
2023/09/05 08:22:22;;;;;;;18.92;13.25;;;;;;;25.25;53.98;100603.59;4941813;29;20024;-96
2023/09/05 08:24:47;;;;;;;25.75;14.43;;;;;;;25.09;55.79;100607.16;4952875;28;20035;-95
2023/09/05 08:27:13;;;;;;;22.95;14.50;;;;;;;25.10;54.68;100619.38;4953513;29;20470;-95
2023/09/05 08:29:38;;;;;;;20.00;13.35;;;;;;;25.15;55.16;100627.59;4949213;29;20019;-95
2023/09/05 08:32:04;;;;;;;21.08;12.73;;;;;;;25.81;53.85;100643.63;4933894;29;20040;-95
2023/09/05 08:34:30;;;;;;;14.55;11.20;;;;;;;26.55;51.56;100642.72;4933953;29;20378;-95
2023/09/05 08:36:57;;;;;;;19.98;14.00;;;;;;;25.99;51.55;100646.75;4943279;29;20389;-95
2023/09/05 08:39:22;;;;;;;15.48;11.68;;;;;;;25.94;51.69;100645.66;4953194;29;20067;-95
2023/09/05 08:41:48;;;;;;;18.85;11.93;;;;;;;25.79;52.91;100643.00;4953023;28;20500;-95
2023/09/05 08:44:14;;;;;;;18.85;13.02;;;;;;;26.27;51.45;100638.13;4953000;29;20038;-95
2023/09/05 08:46:40;;;;;;;18.48;12.80;;;;;;;25.59;53.33;100637.44;4953557;28;20074;-94
2023/09/05 08:49:05;;;;;;;19.67;14.60;;;;;;;25.50;52.76;100623.47;4953127;29;20028;-96
2023/09/05 08:51:35;;;;;;;18.48;12.52;;;;;;;25.99;53.31;100628.22;4948669;29;20031;-95
2023/09/05 08:54:03;;;;;;;20.80;13.35;;;;;;;25.87;53.09;100627.06;4933886;29;20493;-96
2023/09/05 08:56:29;;;;;;;15.98;12.63;;;;;;;26.29;52.09;100624.69;4933660;29;20051;-95
2023/09/05 08:58:59;;;;;;;18.90;13.30;;;;;;;26.23;50.92;100620.97;4933760;29;20036;-96
2023/09/05 09:01:25;;;;;;;19.02;13.18;;;;;;;26.44;51.20;100622.84;4933801;29;20038;-95
2023/09/05 09:03:51;;;;;;;16.83;11.45;;;;;;;26.67;50.45;100609.47;4933909;29;20019;-95
2023/09/05 09:06:24;;;;;;;18.52;12.68;;;;;;;26.05;51.65;100614.28;4933957;29;20046;-96
2023/09/05 09:08:50;;;;;;;13.77;10.13;;;;;;;26.57;51.66;100614.25;4933727;29;20024;-95
2023/09/05 09:11:19;;;;;;;15.90;11.18;;;;;;;26.67;51.37;100606.81;4933866;29;20032;-95
2023/09/05 09:13:47;;;;;;;13.55;9.80;;;;;;;27.16;49.94;100605.97;4949826;29;20114;-96
2023/09/05 09:16:17;;;;;;;16.15;10.93;;;;;;;26.95;50.01;100608.69;4949729;29;20023;-96
2023/09/05 09:18:45;;;;;;;19.23;11.40;;;;;;;27.12;50.01;100620.66;4933897;29;20036;-96
2023/09/05 09:21:16;;;;;;;12.57;9.35;;;;;;;27.22;50.01;100621.16;4938045;29;20031;-95
2023/09/05 09:23:41;;;;;;;13.98;9.70;;;;;;;27.83;49.45;100630.31;4953946;28;20034;-96
2023/09/05 09:26:07;;;;;;;15.68;9.00;;;;;;;27.80;48.57;100628.84;4952697;29;20035;-95
2023/09/05 09:28:34;;;;;;;12.32;10.63;;;;;;;27.27;49.39;100629.34;4952774;28;20046;-96
2023/09/05 09:31:01;;;;;;;13.98;8.77;;;;;;;27.92;49.08;100619.34;4953857;29;20035;-96
2023/09/05 09:33:29;;;;;;;13.68;8.25;;;;;;;28.52;48.25;100622.19;4953808;29;20500;-95
2023/09/05 09:36:01;;;;;;;13.82;9.52;;;;;;;28.89;46.80;100619.97;4951509;28;20023;-96
2023/09/05 09:38:27;;;;;;;15.95;8.85;;;;;;;29.05;46.28;100620.63;4956442;28;20118;-96
2023/09/05 09:40:52;;;;;;;11.50;8.48;;;;;;;28.41;47.41;100604.19;4956046;28;20024;-96
2023/09/05 09:43:18;;;;;;;11.55;9.35;;;;;;;28.74;47.08;100601.59;4956281;29;20541;-95
2023/09/05 09:45:44;;;;;;;11.75;7.80;;;;;;;28.69;47.92;100600.56;4956368;28;20027;-95
2023/09/05 09:48:12;;;;;;;10.90;7.88;;;;;;;29.11;45.77;100588.72;4956142;29;20031;-95
2023/09/05 09:50:39;;;;;;;12.82;7.55;;;;;;;29.03;46.38;100587.06;4954824;28;20027;-95
2023/09/05 09:53:05;;;;;;;8.68;7.32;;;;;;;29.02;46.49;100574.81;4950396;28;20494;-95
2023/09/05 09:55:32;;;;;;;12.10;8.85;;;;;;;28.73;46.20;100561.97;4936935;29;20067;-96
2023/09/05 09:58:03;;;;;;;14.98;8.25;;;;;;;28.08;48.65;100566.94;4936641;28;20063;-95
2023/09/05 10:00:32;;;;;;;10.75;7.57;;;;;;;28.83;47.31;100569.53;4936694;29;20079;-95
2023/09/05 10:03:00;;;;;;;12.63;10.63;;;;;;;28.50;47.54;100565.00;4936520;29;20019;-95
2023/09/05 10:05:26;;;;;;;9.90;8.10;;;;;;;28.71;47.32;100562.16;4936203;29;20409;-95
2023/09/05 10:07:54;;;;;;;19.30;8.27;;;;;;;28.76;47.37;100569.53;4936857;29;20027;-96
2023/09/05 10:10:20;;;;;;;14.57;8.57;;;;;;;28.47;47.75;100570.72;4936516;29;20144;-96
2023/09/05 10:12:45;;;;;;;12.50;9.43;;;;;;;28.17;48.79;100566.56;4936625;29;20118;-94
2023/09/05 10:15:15;;;;;;;13.57;8.63;;;;;;;28.30;48.10;100555.16;4936508;29;20055;-95
2023/09/05 10:17:42;;;;;;;10.75;8.00;;;;;;;28.41;47.88;100544.94;4936317;29;20027;-95
2023/09/05 10:20:09;;;;;;;13.77;8.82;;;;;;;27.91;49.67;100540.75;4935994;29;20042;-96
2023/09/05 10:22:39;;;;;;;11.23;8.20;;;;;;;27.94;49.30;100536.91;4948492;29;20505;-96
2023/09/05 10:25:06;;;;;;;15.45;8.38;;;;;;;27.70;49.65;100532.91;4952135;28;20028;-96
2023/09/05 10:27:31;;;;;;;11.75;8.77;;;;;;;27.87;48.70;100538.72;4952246;29;20502;-96
2023/09/05 10:29:57;;;;;;;12.13;8.23;;;;;;;27.60;49.65;100530.63;4935926;29;20116;-96
2023/09/05 10:32:24;;;;;;;12.27;8.10;;;;;;;27.57;50.11;100536.31;4936228;29;20405;-95
2023/09/05 10:34:58;;;;;;;14.15;8.15;;;;;;;28.06;48.73;100543.25;4936098;29;20118;-96
2023/09/05 10:37:33;;;;;;;14.85;8.57;;;;;;;28.07;49.11;100544.09;4936250;29;20031;-96
2023/09/05 10:40:10;;;;;;;9.98;5.97;;;;;;;28.61;48.49;100543.16;4936333;29;20072;-96
2023/09/05 10:42:49;;;;;;;12.85;9.00;;;;;;;27.49;51.27;100547.09;4936762;29;20032;-96
2023/09/05 10:45:28;;;;;;;11.00;8.10;;;;;;;28.20;49.97;100543.28;4937369;29;20040;-96
2023/09/05 10:47:58;;;;;;;11.05;7.40;;;;;;;28.40;49.04;100544.13;4935403;29;20402;-96
2023/09/05 10:50:24;;;;;;;10.90;7.37;;;;;;;28.68;47.99;100557.28;4936069;29;20030;-96
2023/09/05 10:53:12;;;;;;;12.88;7.47;;;;;;;28.57;48.15;100545.41;4935752;29;20266;-96
2023/09/05 10:55:44;;;;;;;10.18;7.38;;;;;;;28.86;47.61;100537.22;4948332;29;20504;-96
2023/09/05 10:58:54;;;;;;;9.90;6.68;;;;;;;29.33;47.33;100543.28;4945041;29;20058;-96
2023/09/05 11:01:32;;;;;;;11.63;7.90;;;;;;;28.63;47.97;100527.84;4935769;29;20082;-96
2023/09/05 11:04:18;;;;;;;10.55;7.82;;;;;;;28.93;47.21;100528.22;4935801;29;20193;-95
2023/09/05 11:06:54;;;;;;;13.27;8.10;;;;;;;28.20;47.93;100532.69;4935534;29;20490;-96
2023/09/05 11:09:20;;;;;;;9.88;6.90;;;;;;;28.18;49.36;100525.72;4935614;29;20058;-96
2023/09/05 11:11:45;;;;;;;13.93;6.97;;;;;;;28.48;49.25;100530.72;4935635;29;20059;-96
2023/09/05 11:14:11;;;;;;;11.68;7.28;;;;;;;28.76;47.60;100532.34;4935510;29;20031;-96
2023/09/05 11:16:47;;;;;;;13.63;7.03;;;;;;;29.06;46.72;100523.91;4936583;29;20462;-96
2023/09/05 11:19:27;;;;;;;9.52;7.07;;;;;;;28.81;47.13;100532.53;4935685;29;20439;-95
2023/09/05 11:22:05;;;;;;;9.68;5.60;;;;;;;29.15;45.66;100530.66;4935314;29;20031;-96
2023/09/05 11:24:32;;;;;;;7.68;5.25;;;;;;;29.84;46.00;100530.00;4936484;29;20035;-96
2023/09/05 11:26:57;;;;;;;8.57;6.07;;;;;;;29.72;45.56;100533.56;4935395;29;20035;-96
2023/09/05 11:29:24;;;;;;;8.90;6.10;;;;;;;29.86;45.03;100527.97;4934865;29;20367;-96
2023/09/05 11:31:51;;;;;;;6.35;3.97;;;;;;;30.77;45.00;100535.75;4934949;29;20079;-96